sensor_id;sensor_type;location;lat;lon;timestamp;P1;durP1;ratioP1;P2;durP2;ratioP2
43118;SDS011;28729;49.838;8.650;2023-01-04T00:01:01;4.40;;;1.77;;
43118;SDS011;28729;49.838;8.650;2023-01-04T00:05:06;4.75;;;1.60;;
43118;SDS011;28729;49.838;8.650;2023-01-04T00:09:08;4.03;;;1.50;;
43118;SDS011;28729;49.838;8.650;2023-01-04T00:13:10;2.22;;;1.30;;
43118;SDS011;28729;49.838;8.650;2023-01-04T00:17:11;4.05;;;1.35;;
43118;SDS011;28729;49.838;8.650;2023-01-04T00:25:19;5.22;;;1.73;;
43118;SDS011;28729;49.838;8.650;2023-01-04T00:29:20;6.60;;;2.00;;
43118;SDS011;28729;49.838;8.650;2023-01-04T00:33:22;5.90;;;2.38;;
43118;SDS011;28729;49.838;8.650;2023-01-04T00:37:24;5.25;;;2.90;;
43118;SDS011;28729;49.838;8.650;2023-01-04T00:41:25;7.93;;;3.20;;
43118;SDS011;28729;49.838;8.650;2023-01-04T00:45:47;7.13;;;3.92;;
43118;SDS011;28729;49.838;8.650;2023-01-04T00:49:48;12.25;;;5.03;;
43118;SDS011;28729;49.838;8.650;2023-01-04T00:53:50;13.32;;;6.28;;
43118;SDS011;28729;49.838;8.650;2023-01-04T00:57:53;11.73;;;5.95;;
43118;SDS011;28729;49.838;8.650;2023-01-04T01:01:55;14.10;;;6.93;;
43118;SDS011;28729;49.838;8.650;2023-01-04T01:06:00;17.30;;;7.57;;
43118;SDS011;28729;49.838;8.650;2023-01-04T01:10:03;15.52;;;6.95;;
43118;SDS011;28729;49.838;8.650;2023-01-04T01:14:06;13.55;;;6.78;;
43118;SDS011;28729;49.838;8.650;2023-01-04T01:22:10;11.32;;;6.03;;
43118;SDS011;28729;49.838;8.650;2023-01-04T01:26:13;13.48;;;6.07;;
43118;SDS011;28729;49.838;8.650;2023-01-04T01:30:16;12.25;;;5.35;;
43118;SDS011;28729;49.838;8.650;2023-01-04T01:34:18;9.50;;;5.40;;
43118;SDS011;28729;49.838;8.650;2023-01-04T01:38:20;9.15;;;4.22;;
43118;SDS011;28729;49.838;8.650;2023-01-04T01:42:22;7.55;;;4.20;;
43118;SDS011;28729;49.838;8.650;2023-01-04T01:50:30;8.73;;;4.22;;
43118;SDS011;28729;49.838;8.650;2023-01-04T01:54:46;9.88;;;4.18;;
43118;SDS011;28729;49.838;8.650;2023-01-04T01:58:52;9.20;;;4.38;;
43118;SDS011;28729;49.838;8.650;2023-01-04T02:03:02;7.53;;;4.00;;
43118;SDS011;28729;49.838;8.650;2023-01-04T02:07:13;9.10;;;3.55;;
43118;SDS011;28729;49.838;8.650;2023-01-04T02:11:18;8.82;;;4.38;;
43118;SDS011;28729;49.838;8.650;2023-01-04T02:15:20;8.63;;;4.25;;
43118;SDS011;28729;49.838;8.650;2023-01-04T02:28:08;7.65;;;3.97;;
43118;SDS011;28729;49.838;8.650;2023-01-04T02:32:25;9.18;;;3.63;;
43118;SDS011;28729;49.838;8.650;2023-01-04T02:45:55;6.18;;;3.63;;
43118;SDS011;28729;49.838;8.650;2023-01-04T02:50:04;7.45;;;4.15;;
43118;SDS011;28729;49.838;8.650;2023-01-04T02:54:32;8.95;;;4.28;;
43118;SDS011;28729;49.838;8.650;2023-01-04T02:58:56;9.37;;;4.23;;
43118;SDS011;28729;49.838;8.650;2023-01-04T03:03:16;9.93;;;5.30;;
43118;SDS011;28729;49.838;8.650;2023-01-04T03:11:52;12.00;;;5.05;;
43118;SDS011;28729;49.838;8.650;2023-01-04T03:16:20;11.80;;;4.57;;
43118;SDS011;28729;49.838;8.650;2023-01-04T03:20:25;9.30;;;4.50;;
43118;SDS011;28729;49.838;8.650;2023-01-04T03:24:30;9.88;;;4.18;;
43118;SDS011;28729;49.838;8.650;2023-01-04T03:29:15;7.87;;;3.43;;
43118;SDS011;28729;49.838;8.650;2023-01-04T03:33:40;5.72;;;3.40;;
43118;SDS011;28729;49.838;8.650;2023-01-04T03:38:03;7.45;;;3.17;;
43118;SDS011;28729;49.838;8.650;2023-01-04T03:42:30;6.25;;;3.90;;
43118;SDS011;28729;49.838;8.650;2023-01-04T03:47:16;5.97;;;3.00;;
43118;SDS011;28729;49.838;8.650;2023-01-04T03:51:43;6.13;;;3.08;;
43118;SDS011;28729;49.838;8.650;2023-01-04T03:55:46;6.82;;;3.42;;
43118;SDS011;28729;49.838;8.650;2023-01-04T03:59:54;6.97;;;3.50;;
43118;SDS011;28729;49.838;8.650;2023-01-04T04:04:01;4.88;;;3.00;;
43118;SDS011;28729;49.838;8.650;2023-01-04T04:08:22;5.55;;;2.70;;
43118;SDS011;28729;49.838;8.650;2023-01-04T04:12:30;5.57;;;2.90;;
43118;SDS011;28729;49.838;8.650;2023-01-04T04:16:31;7.05;;;2.72;;
43118;SDS011;28729;49.838;8.650;2023-01-04T04:20:33;7.05;;;2.70;;
43118;SDS011;28729;49.838;8.650;2023-01-04T04:24:35;5.38;;;2.35;;
43118;SDS011;28729;49.838;8.650;2023-01-04T04:28:36;7.07;;;2.85;;
43118;SDS011;28729;49.838;8.650;2023-01-04T04:32:39;5.43;;;2.88;;
43118;SDS011;28729;49.838;8.650;2023-01-04T04:36:41;8.50;;;2.92;;
43118;SDS011;28729;49.838;8.650;2023-01-04T04:40:43;5.13;;;2.92;;
43118;SDS011;28729;49.838;8.650;2023-01-04T04:45:05;7.10;;;3.50;;
43118;SDS011;28729;49.838;8.650;2023-01-04T04:49:08;6.13;;;3.10;;
43118;SDS011;28729;49.838;8.650;2023-01-04T04:53:10;8.18;;;3.70;;
43118;SDS011;28729;49.838;8.650;2023-01-04T04:57:12;7.20;;;4.78;;
43118;SDS011;28729;49.838;8.650;2023-01-04T05:01:14;6.88;;;3.67;;
43118;SDS011;28729;49.838;8.650;2023-01-04T05:05:16;7.28;;;3.08;;
43118;SDS011;28729;49.838;8.650;2023-01-04T05:09:17;7.55;;;3.90;;
43118;SDS011;28729;49.838;8.650;2023-01-04T05:13:19;6.72;;;3.05;;
43118;SDS011;28729;49.838;8.650;2023-01-04T05:17:21;8.35;;;3.67;;
43118;SDS011;28729;49.838;8.650;2023-01-04T05:21:22;6.60;;;3.65;;
43118;SDS011;28729;49.838;8.650;2023-01-04T05:25:24;8.43;;;3.92;;
43118;SDS011;28729;49.838;8.650;2023-01-04T05:29:26;7.60;;;4.30;;
43118;SDS011;28729;49.838;8.650;2023-01-04T05:33:46;8.02;;;3.95;;
43118;SDS011;28729;49.838;8.650;2023-01-04T05:37:48;8.10;;;4.15;;
43118;SDS011;28729;49.838;8.650;2023-01-04T05:41:50;9.75;;;4.90;;
43118;SDS011;28729;49.838;8.650;2023-01-04T05:46:17;8.90;;;4.38;;
43118;SDS011;28729;49.838;8.650;2023-01-04T05:50:20;11.35;;;5.07;;
43118;SDS011;28729;49.838;8.650;2023-01-04T05:54:22;9.82;;;4.80;;
43118;SDS011;28729;49.838;8.650;2023-01-04T05:58:24;9.38;;;5.07;;
43118;SDS011;28729;49.838;8.650;2023-01-04T06:02:27;12.43;;;5.43;;
43118;SDS011;28729;49.838;8.650;2023-01-04T06:06:30;11.13;;;5.43;;
43118;SDS011;28729;49.838;8.650;2023-01-04T06:10:32;13.80;;;5.15;;
43118;SDS011;28729;49.838;8.650;2023-01-04T06:14:33;9.30;;;4.93;;
43118;SDS011;28729;49.838;8.650;2023-01-04T06:18:35;7.78;;;4.25;;
43118;SDS011;28729;49.838;8.650;2023-01-04T06:22:38;10.63;;;4.53;;
43118;SDS011;28729;49.838;8.650;2023-01-04T06:26:43;9.23;;;4.57;;
43118;SDS011;28729;49.838;8.650;2023-01-04T06:30:45;11.20;;;4.38;;
43118;SDS011;28729;49.838;8.650;2023-01-04T06:34:46;13.45;;;4.65;;
43118;SDS011;28729;49.838;8.650;2023-01-04T06:38:49;7.90;;;4.20;;
43118;SDS011;28729;49.838;8.650;2023-01-04T06:42:51;10.25;;;4.88;;
43118;SDS011;28729;49.838;8.650;2023-01-04T06:46:52;9.57;;;4.70;;
43118;SDS011;28729;49.838;8.650;2023-01-04T06:50:54;10.52;;;4.43;;
43118;SDS011;28729;49.838;8.650;2023-01-04T06:54:56;10.27;;;4.00;;
43118;SDS011;28729;49.838;8.650;2023-01-04T06:58:58;11.73;;;4.47;;
43118;SDS011;28729;49.838;8.650;2023-01-04T07:03:02;12.52;;;4.95;;
43118;SDS011;28729;49.838;8.650;2023-01-04T07:07:17;8.43;;;4.78;;
43118;SDS011;28729;49.838;8.650;2023-01-04T07:11:19;16.30;;;6.13;;
43118;SDS011;28729;49.838;8.650;2023-01-04T07:15:22;12.00;;;5.80;;
43118;SDS011;28729;49.838;8.650;2023-01-04T07:19:40;13.45;;;6.22;;
43118;SDS011;28729;49.838;8.650;2023-01-04T07:27:49;11.00;;;5.00;;
43118;SDS011;28729;49.838;8.650;2023-01-04T07:31:54;10.27;;;4.63;;
43118;SDS011;28729;49.838;8.650;2023-01-04T07:36:00;11.15;;;5.97;;
43118;SDS011;28729;49.838;8.650;2023-01-04T07:40:04;12.07;;;5.10;;
43118;SDS011;28729;49.838;8.650;2023-01-04T07:44:08;10.80;;;5.50;;
43118;SDS011;28729;49.838;8.650;2023-01-04T07:48:17;10.50;;;5.10;;
43118;SDS011;28729;49.838;8.650;2023-01-04T07:52:19;13.83;;;5.53;;
43118;SDS011;28729;49.838;8.650;2023-01-04T07:56:21;8.05;;;4.65;;
43118;SDS011;28729;49.838;8.650;2023-01-04T08:00:26;9.65;;;4.40;;
43118;SDS011;28729;49.838;8.650;2023-01-04T08:08:36;7.25;;;3.30;;
43118;SDS011;28729;49.838;8.650;2023-01-04T08:12:38;7.22;;;3.60;;
43118;SDS011;28729;49.838;8.650;2023-01-04T08:16:40;6.95;;;3.80;;
43118;SDS011;28729;49.838;8.650;2023-01-04T08:20:43;8.93;;;4.07;;
43118;SDS011;28729;49.838;8.650;2023-01-04T08:24:45;8.68;;;3.72;;
43118;SDS011;28729;49.838;8.650;2023-01-04T08:28:47;7.45;;;3.53;;
43118;SDS011;28729;49.838;8.650;2023-01-04T08:32:51;6.78;;;3.33;;
43118;SDS011;28729;49.838;8.650;2023-01-04T08:36:53;8.90;;;4.05;;
43118;SDS011;28729;49.838;8.650;2023-01-04T08:40:55;8.25;;;3.67;;
43118;SDS011;28729;49.838;8.650;2023-01-04T08:45:07;7.22;;;3.67;;
43118;SDS011;28729;49.838;8.650;2023-01-04T08:49:10;6.68;;;3.35;;
43118;SDS011;28729;49.838;8.650;2023-01-04T08:53:12;7.20;;;3.50;;
43118;SDS011;28729;49.838;8.650;2023-01-04T08:57:14;6.28;;;3.13;;
43118;SDS011;28729;49.838;8.650;2023-01-04T09:01:17;7.95;;;3.75;;
43118;SDS011;28729;49.838;8.650;2023-01-04T09:05:20;7.72;;;3.63;;
43118;SDS011;28729;49.838;8.650;2023-01-04T09:09:23;8.80;;;3.42;;
43118;SDS011;28729;49.838;8.650;2023-01-04T09:13:25;6.93;;;3.17;;
43118;SDS011;28729;49.838;8.650;2023-01-04T09:17:30;9.43;;;3.50;;
43118;SDS011;28729;49.838;8.650;2023-01-04T09:21:32;7.40;;;2.80;;
43118;SDS011;28729;49.838;8.650;2023-01-04T09:25:33;6.75;;;3.00;;
43118;SDS011;28729;49.838;8.650;2023-01-04T09:29:35;7.00;;;2.83;;
43118;SDS011;28729;49.838;8.650;2023-01-04T09:33:37;5.28;;;2.72;;
43118;SDS011;28729;49.838;8.650;2023-01-04T09:37:59;5.03;;;3.17;;
43118;SDS011;28729;49.838;8.650;2023-01-04T09:42:01;5.93;;;2.38;;
43118;SDS011;28729;49.838;8.650;2023-01-04T09:46:14;4.20;;;2.20;;
43118;SDS011;28729;49.838;8.650;2023-01-04T09:50:33;3.65;;;1.95;;
43118;SDS011;28729;49.838;8.650;2023-01-04T09:54:57;5.28;;;2.35;;
43118;SDS011;28729;49.838;8.650;2023-01-04T09:59:23;5.15;;;2.08;;
43118;SDS011;28729;49.838;8.650;2023-01-04T10:03:31;4.03;;;1.92;;
43118;SDS011;28729;49.838;8.650;2023-01-04T10:07:35;3.53;;;1.83;;
43118;SDS011;28729;49.838;8.650;2023-01-04T10:20:58;4.72;;;1.70;;
43118;SDS011;28729;49.838;8.650;2023-01-04T10:30:06;4.68;;;1.98;;
43118;SDS011;28729;49.838;8.650;2023-01-04T10:34:22;4.28;;;1.70;;
43118;SDS011;28729;49.838;8.650;2023-01-04T10:38:31;2.67;;;1.60;;
43118;SDS011;28729;49.838;8.650;2023-01-04T10:42:38;3.28;;;1.50;;
43118;SDS011;28729;49.838;8.650;2023-01-04T10:47:09;3.60;;;1.90;;
43118;SDS011;28729;49.838;8.650;2023-01-04T10:51:39;4.05;;;1.60;;
43118;SDS011;28729;49.838;8.650;2023-01-04T10:55:51;4.25;;;1.52;;
43118;SDS011;28729;49.838;8.650;2023-01-04T11:00:20;4.10;;;1.75;;
43118;SDS011;28729;49.838;8.650;2023-01-04T11:04:38;3.53;;;1.70;;
43118;SDS011;28729;49.838;8.650;2023-01-04T11:08:46;2.92;;;1.52;;
43118;SDS011;28729;49.838;8.650;2023-01-04T11:12:50;2.53;;;1.60;;
43118;SDS011;28729;49.838;8.650;2023-01-04T11:16:57;3.10;;;1.55;;
43118;SDS011;28729;49.838;8.650;2023-01-04T11:21:03;2.63;;;1.23;;
43118;SDS011;28729;49.838;8.650;2023-01-04T11:25:10;4.03;;;1.65;;
43118;SDS011;28729;49.838;8.650;2023-01-04T11:29:44;4.15;;;1.65;;
43118;SDS011;28729;49.838;8.650;2023-01-04T11:33:59;2.75;;;1.40;;
43118;SDS011;28729;49.838;8.650;2023-01-04T11:38:09;3.08;;;1.30;;
43118;SDS011;28729;49.838;8.650;2023-01-04T11:42:16;5.68;;;1.50;;
43118;SDS011;28729;49.838;8.650;2023-01-04T11:46:21;3.42;;;1.48;;
43118;SDS011;28729;49.838;8.650;2023-01-04T11:50:41;2.90;;;1.30;;
43118;SDS011;28729;49.838;8.650;2023-01-04T11:54:44;3.08;;;1.35;;
43118;SDS011;28729;49.838;8.650;2023-01-04T12:03:35;2.95;;;1.50;;
43118;SDS011;28729;49.838;8.650;2023-01-04T12:07:39;2.33;;;1.20;;
43118;SDS011;28729;49.838;8.650;2023-01-04T12:11:52;3.22;;;1.52;;
43118;SDS011;28729;49.838;8.650;2023-01-04T12:16:06;4.10;;;1.40;;
43118;SDS011;28729;49.838;8.650;2023-01-04T12:20:18;4.18;;;1.35;;
43118;SDS011;28729;49.838;8.650;2023-01-04T12:24:22;4.22;;;1.13;;
43118;SDS011;28729;49.838;8.650;2023-01-04T12:32:41;2.03;;;1.00;;
43118;SDS011;28729;49.838;8.650;2023-01-04T12:48:54;2.67;;;1.27;;
43118;SDS011;28729;49.838;8.650;2023-01-04T12:53:06;2.92;;;1.52;;
43118;SDS011;28729;49.838;8.650;2023-01-04T13:01:38;3.00;;;1.67;;
43118;SDS011;28729;49.838;8.650;2023-01-04T13:05:41;2.65;;;1.58;;
43118;SDS011;28729;49.838;8.650;2023-01-04T13:09:59;3.65;;;1.67;;
43118;SDS011;28729;49.838;8.650;2023-01-04T13:14:06;3.00;;;1.50;;
43118;SDS011;28729;49.838;8.650;2023-01-04T13:18:18;7.38;;;1.75;;
43118;SDS011;28729;49.838;8.650;2023-01-04T13:22:39;3.92;;;1.52;;
43118;SDS011;28729;49.838;8.650;2023-01-04T13:26:51;3.72;;;1.60;;
43118;SDS011;28729;49.838;8.650;2023-01-04T13:30:56;3.85;;;1.70;;
43118;SDS011;28729;49.838;8.650;2023-01-04T13:39:13;6.53;;;1.90;;
43118;SDS011;28729;49.838;8.650;2023-01-04T13:47:27;3.67;;;1.80;;
43118;SDS011;28729;49.838;8.650;2023-01-04T13:51:34;3.25;;;1.50;;
43118;SDS011;28729;49.838;8.650;2023-01-04T13:55:38;3.92;;;1.48;;
43118;SDS011;28729;49.838;8.650;2023-01-04T13:59:40;2.90;;;1.40;;
43118;SDS011;28729;49.838;8.650;2023-01-04T14:03:43;3.88;;;1.92;;
43118;SDS011;28729;49.838;8.650;2023-01-04T14:07:49;3.03;;;1.85;;
43118;SDS011;28729;49.838;8.650;2023-01-04T14:11:55;4.20;;;2.10;;
43118;SDS011;28729;49.838;8.650;2023-01-04T14:16:09;4.13;;;1.85;;
43118;SDS011;28729;49.838;8.650;2023-01-04T14:24:31;3.67;;;1.92;;
43118;SDS011;28729;49.838;8.650;2023-01-04T14:28:53;3.88;;;1.90;;
43118;SDS011;28729;49.838;8.650;2023-01-04T14:33:00;2.90;;;1.70;;
43118;SDS011;28729;49.838;8.650;2023-01-04T14:37:16;3.45;;;1.90;;
43118;SDS011;28729;49.838;8.650;2023-01-04T14:41:20;4.55;;;1.58;;
43118;SDS011;28729;49.838;8.650;2023-01-04T14:45:35;3.30;;;1.58;;
43118;SDS011;28729;49.838;8.650;2023-01-04T14:49:37;3.20;;;1.45;;
43118;SDS011;28729;49.838;8.650;2023-01-04T14:53:39;3.65;;;1.35;;
43118;SDS011;28729;49.838;8.650;2023-01-04T14:57:45;3.55;;;1.60;;
43118;SDS011;28729;49.838;8.650;2023-01-04T15:01:47;3.28;;;1.67;;
43118;SDS011;28729;49.838;8.650;2023-01-04T15:05:50;3.72;;;1.40;;
43118;SDS011;28729;49.838;8.650;2023-01-04T15:09:53;3.05;;;1.63;;
43118;SDS011;28729;49.838;8.650;2023-01-04T15:13:54;2.80;;;1.33;;
43118;SDS011;28729;49.838;8.650;2023-01-04T15:17:56;5.05;;;1.65;;
43118;SDS011;28729;49.838;8.650;2023-01-04T15:21:58;3.78;;;1.58;;
43118;SDS011;28729;49.838;8.650;2023-01-04T15:26:02;4.10;;;2.08;;
43118;SDS011;28729;49.838;8.650;2023-01-04T15:30:05;5.80;;;2.42;;
43118;SDS011;28729;49.838;8.650;2023-01-04T15:34:08;3.25;;;1.80;;
43118;SDS011;28729;49.838;8.650;2023-01-04T15:38:11;4.10;;;2.38;;
43118;SDS011;28729;49.838;8.650;2023-01-04T15:42:18;4.93;;;1.70;;
43118;SDS011;28729;49.838;8.650;2023-01-04T15:46:39;4.05;;;2.00;;
43118;SDS011;28729;49.838;8.650;2023-01-04T15:50:41;4.72;;;1.50;;
43118;SDS011;28729;49.838;8.650;2023-01-04T15:54:44;3.78;;;1.83;;
43118;SDS011;28729;49.838;8.650;2023-01-04T15:58:51;3.83;;;1.83;;
43118;SDS011;28729;49.838;8.650;2023-01-04T16:02:55;3.50;;;1.92;;
43118;SDS011;28729;49.838;8.650;2023-01-04T16:06:57;2.90;;;1.52;;
43118;SDS011;28729;49.838;8.650;2023-01-04T16:11:06;3.97;;;2.15;;
43118;SDS011;28729;49.838;8.650;2023-01-04T16:15:19;3.05;;;1.40;;
43118;SDS011;28729;49.838;8.650;2023-01-04T16:19:21;2.40;;;1.10;;
43118;SDS011;28729;49.838;8.650;2023-01-04T16:23:28;2.47;;;1.70;;
43118;SDS011;28729;49.838;8.650;2023-01-04T16:27:31;5.75;;;1.80;;
43118;SDS011;28729;49.838;8.650;2023-01-04T16:31:36;5.97;;;2.17;;
43118;SDS011;28729;49.838;8.650;2023-01-04T16:35:38;4.10;;;1.67;;
43118;SDS011;28729;49.838;8.650;2023-01-04T16:39:39;4.50;;;1.60;;
43118;SDS011;28729;49.838;8.650;2023-01-04T16:44:03;4.82;;;1.35;;
43118;SDS011;28729;49.838;8.650;2023-01-04T16:48:07;2.03;;;1.35;;
43118;SDS011;28729;49.838;8.650;2023-01-04T16:52:16;3.20;;;1.80;;
43118;SDS011;28729;49.838;8.650;2023-01-04T16:56:22;2.03;;;1.02;;
43118;SDS011;28729;49.838;8.650;2023-01-04T17:00:31;2.30;;;1.25;;
43118;SDS011;28729;49.838;8.650;2023-01-04T17:04:33;3.13;;;1.67;;
43118;SDS011;28729;49.838;8.650;2023-01-04T17:08:40;3.30;;;1.63;;
43118;SDS011;28729;49.838;8.650;2023-01-04T17:12:42;4.75;;;2.10;;
43118;SDS011;28729;49.838;8.650;2023-01-04T17:16:49;3.67;;;1.55;;
43118;SDS011;28729;49.838;8.650;2023-01-04T17:20:52;2.25;;;1.35;;
43118;SDS011;28729;49.838;8.650;2023-01-04T17:25:17;2.55;;;1.10;;
43118;SDS011;28729;49.838;8.650;2023-01-04T17:29:20;2.00;;;0.95;;
43118;SDS011;28729;49.838;8.650;2023-01-04T17:33:21;3.15;;;1.30;;
43118;SDS011;28729;49.838;8.650;2023-01-04T17:37:24;1.35;;;0.88;;
43118;SDS011;28729;49.838;8.650;2023-01-04T17:41:28;1.65;;;0.77;;
43118;SDS011;28729;49.838;8.650;2023-01-04T17:45:32;1.83;;;1.00;;
43118;SDS011;28729;49.838;8.650;2023-01-04T17:49:35;3.53;;;1.40;;
43118;SDS011;28729;49.838;8.650;2023-01-04T17:53:39;2.22;;;1.40;;
43118;SDS011;28729;49.838;8.650;2023-01-04T17:57:44;3.13;;;1.10;;
43118;SDS011;28729;49.838;8.650;2023-01-04T18:01:46;1.73;;;0.95;;
43118;SDS011;28729;49.838;8.650;2023-01-04T18:05:53;2.60;;;1.00;;
43118;SDS011;28729;49.838;8.650;2023-01-04T18:10:16;2.70;;;1.35;;
43118;SDS011;28729;49.838;8.650;2023-01-04T18:14:37;2.72;;;1.25;;
43118;SDS011;28729;49.838;8.650;2023-01-04T18:18:39;1.83;;;0.80;;
43118;SDS011;28729;49.838;8.650;2023-01-04T18:22:41;2.53;;;1.03;;
43118;SDS011;28729;49.838;8.650;2023-01-04T18:26:43;1.98;;;1.10;;
43118;SDS011;28729;49.838;8.650;2023-01-04T18:35:15;3.08;;;1.05;;
43118;SDS011;28729;49.838;8.650;2023-01-04T18:39:17;1.30;;;1.00;;
43118;SDS011;28729;49.838;8.650;2023-01-04T18:43:19;2.10;;;1.30;;
43118;SDS011;28729;49.838;8.650;2023-01-04T18:47:22;3.65;;;1.58;;
43118;SDS011;28729;49.838;8.650;2023-01-04T18:51:25;2.85;;;1.23;;
43118;SDS011;28729;49.838;8.650;2023-01-04T18:55:28;2.15;;;1.33;;
43118;SDS011;28729;49.838;8.650;2023-01-04T18:59:29;2.85;;;1.38;;
43118;SDS011;28729;49.838;8.650;2023-01-04T19:03:32;2.53;;;1.37;;
43118;SDS011;28729;49.838;8.650;2023-01-04T19:07:36;1.58;;;1.15;;
43118;SDS011;28729;49.838;8.650;2023-01-04T19:11:39;1.80;;;1.20;;
43118;SDS011;28729;49.838;8.650;2023-01-04T19:15:46;2.45;;;1.27;;
43118;SDS011;28729;49.838;8.650;2023-01-04T19:19:48;2.03;;;1.20;;
43118;SDS011;28729;49.838;8.650;2023-01-04T19:23:50;2.93;;;1.40;;
43118;SDS011;28729;49.838;8.650;2023-01-04T19:27:53;3.78;;;1.25;;
43118;SDS011;28729;49.838;8.650;2023-01-04T19:31:54;3.20;;;1.35;;
43118;SDS011;28729;49.838;8.650;2023-01-04T19:35:56;2.45;;;1.40;;
43118;SDS011;28729;49.838;8.650;2023-01-04T19:39:57;2.97;;;1.52;;
43118;SDS011;28729;49.838;8.650;2023-01-04T19:44:02;4.13;;;1.42;;
43118;SDS011;28729;49.838;8.650;2023-01-04T19:48:06;3.00;;;1.55;;
43118;SDS011;28729;49.838;8.650;2023-01-04T19:52:10;3.80;;;1.95;;
43118;SDS011;28729;49.838;8.650;2023-01-04T19:56:13;2.83;;;1.83;;
43118;SDS011;28729;49.838;8.650;2023-01-04T20:00:16;4.50;;;1.92;;
43118;SDS011;28729;49.838;8.650;2023-01-04T20:04:18;6.60;;;2.28;;
43118;SDS011;28729;49.838;8.650;2023-01-04T20:08:20;2.97;;;1.58;;
43118;SDS011;28729;49.838;8.650;2023-01-04T20:12:23;7.00;;;2.28;;
43118;SDS011;28729;49.838;8.650;2023-01-04T20:16:24;4.90;;;2.22;;
43118;SDS011;28729;49.838;8.650;2023-01-04T20:20:26;4.57;;;2.25;;
43118;SDS011;28729;49.838;8.650;2023-01-04T20:24:28;5.70;;;2.10;;
43118;SDS011;28729;49.838;8.650;2023-01-04T20:28:30;5.07;;;2.45;;
43118;SDS011;28729;49.838;8.650;2023-01-04T20:32:34;4.35;;;2.15;;
43118;SDS011;28729;49.838;8.650;2023-01-04T20:36:36;5.90;;;2.15;;
43118;SDS011;28729;49.838;8.650;2023-01-04T20:40:39;4.03;;;2.15;;
43118;SDS011;28729;49.838;8.650;2023-01-04T20:44:42;4.53;;;2.17;;
43118;SDS011;28729;49.838;8.650;2023-01-04T20:48:45;3.78;;;1.85;;
43118;SDS011;28729;49.838;8.650;2023-01-04T20:52:48;3.40;;;1.58;;
43118;SDS011;28729;49.838;8.650;2023-01-04T20:56:50;5.03;;;2.17;;
43118;SDS011;28729;49.838;8.650;2023-01-04T21:00:53;4.18;;;1.85;;
43118;SDS011;28729;49.838;8.650;2023-01-04T21:04:54;5.80;;;2.00;;
43118;SDS011;28729;49.838;8.650;2023-01-04T21:08:57;2.97;;;1.15;;
43118;SDS011;28729;49.838;8.650;2023-01-04T21:12:59;2.15;;;0.98;;
43118;SDS011;28729;49.838;8.650;2023-01-04T21:17:00;6.97;;;4.15;;
43118;SDS011;28729;49.838;8.650;2023-01-04T21:21:04;3.80;;;2.30;;
43118;SDS011;28729;49.838;8.650;2023-01-04T21:25:07;3.75;;;2.00;;
43118;SDS011;28729;49.838;8.650;2023-01-04T21:29:09;4.78;;;2.55;;
43118;SDS011;28729;49.838;8.650;2023-01-04T21:33:11;3.35;;;2.42;;
43118;SDS011;28729;49.838;8.650;2023-01-04T21:41:15;3.15;;;1.98;;
43118;SDS011;28729;49.838;8.650;2023-01-04T21:45:17;4.25;;;1.90;;
43118;SDS011;28729;49.838;8.650;2023-01-04T21:49:20;3.28;;;1.70;;
43118;SDS011;28729;49.838;8.650;2023-01-04T21:53:23;5.20;;;2.17;;
43118;SDS011;28729;49.838;8.650;2023-01-04T21:57:26;3.33;;;2.05;;
43118;SDS011;28729;49.838;8.650;2023-01-04T22:01:27;2.90;;;1.73;;
43118;SDS011;28729;49.838;8.650;2023-01-04T22:05:35;4.50;;;2.20;;
43118;SDS011;28729;49.838;8.650;2023-01-04T22:09:37;4.50;;;2.15;;
43118;SDS011;28729;49.838;8.650;2023-01-04T22:13:39;4.43;;;2.38;;
43118;SDS011;28729;49.838;8.650;2023-01-04T22:17:41;5.90;;;2.33;;
43118;SDS011;28729;49.838;8.650;2023-01-04T22:21:42;5.07;;;1.83;;
43118;SDS011;28729;49.838;8.650;2023-01-04T22:25:44;2.47;;;1.38;;
43118;SDS011;28729;49.838;8.650;2023-01-04T22:29:46;5.30;;;1.80;;
43118;SDS011;28729;49.838;8.650;2023-01-04T22:33:48;4.22;;;2.10;;
43118;SDS011;28729;49.838;8.650;2023-01-04T22:37:49;5.68;;;2.10;;
43118;SDS011;28729;49.838;8.650;2023-01-04T22:41:51;4.90;;;2.33;;
43118;SDS011;28729;49.838;8.650;2023-01-04T22:45:57;4.50;;;2.15;;
43118;SDS011;28729;49.838;8.650;2023-01-04T22:50:01;5.55;;;2.55;;
43118;SDS011;28729;49.838;8.650;2023-01-04T22:54:04;3.95;;;2.03;;
43118;SDS011;28729;49.838;8.650;2023-01-04T22:58:06;3.50;;;1.90;;
43118;SDS011;28729;49.838;8.650;2023-01-04T23:02:08;3.65;;;2.08;;
43118;SDS011;28729;49.838;8.650;2023-01-04T23:06:11;7.30;;;2.55;;
43118;SDS011;28729;49.838;8.650;2023-01-04T23:10:14;3.95;;;1.92;;
43118;SDS011;28729;49.838;8.650;2023-01-04T23:14:16;5.57;;;1.83;;
43118;SDS011;28729;49.838;8.650;2023-01-04T23:18:17;4.27;;;1.90;;
43118;SDS011;28729;49.838;8.650;2023-01-04T23:22:20;3.20;;;1.90;;
43118;SDS011;28729;49.838;8.650;2023-01-04T23:26:23;3.60;;;1.65;;
43118;SDS011;28729;49.838;8.650;2023-01-04T23:30:26;3.35;;;1.25;;
43118;SDS011;28729;49.838;8.650;2023-01-04T23:34:28;6.20;;;1.50;;
43118;SDS011;28729;49.838;8.650;2023-01-04T23:38:30;4.28;;;1.48;;
43118;SDS011;28729;49.838;8.650;2023-01-04T23:42:32;2.67;;;1.20;;
43118;SDS011;28729;49.838;8.650;2023-01-04T23:46:33;2.60;;;1.05;;
43118;SDS011;28729;49.838;8.650;2023-01-04T23:50:35;3.88;;;1.17;;
43118;SDS011;28729;49.838;8.650;2023-01-04T23:54:36;3.08;;;1.20;;
43118;SDS011;28729;49.838;8.650;2023-01-04T23:58:38;3.33;;;1.15;;
